createdAt,value
2023-01-06T00:00:04.806Z,1.40
2023-01-06T00:05:08.191Z,1.30
2023-01-06T00:10:11.624Z,1.20
2023-01-06T00:15:14.165Z,0.90
2023-01-06T00:20:16.015Z,1.37
2023-01-06T00:25:17.811Z,1.00
2023-01-06T00:30:19.604Z,1.33
2023-01-06T00:35:21.547Z,1.23
2023-01-06T00:40:23.523Z,1.13
2023-01-06T00:45:25.647Z,1.50
2023-01-06T00:50:27.990Z,1.50
2023-01-06T00:55:29.962Z,1.10
2023-01-06T01:00:31.913Z,0.93
2023-01-06T01:05:34.643Z,1.10
2023-01-06T01:10:36.947Z,0.90
2023-01-06T01:15:39.028Z,1.43
2023-01-06T01:20:40.861Z,0.50
2023-01-06T01:25:42.635Z,0.80
2023-01-06T01:30:44.531Z,0.80
2023-01-06T01:35:46.473Z,0.77
2023-01-06T01:40:49.732Z,1.50
2023-01-06T01:45:55.681Z,1.33
2023-01-06T01:50:59.657Z,0.83
2023-01-06T01:56:06.732Z,1.50
2023-01-06T02:01:11.031Z,1.20
2023-01-06T02:06:17.660Z,1.17
2023-01-06T02:11:19.788Z,0.80
2023-01-06T02:16:41.264Z,2.13
2023-01-06T02:21:49.057Z,0.80
2023-01-06T02:27:12.166Z,0.90
2023-01-06T02:32:25.805Z,0.93
2023-01-06T02:37:52.791Z,0.57
2023-01-06T02:43:20.710Z,0.73
2023-01-06T02:48:32.817Z,0.70
2023-01-06T02:53:49.410Z,0.90
2023-01-06T02:59:06.432Z,1.10
2023-01-06T03:04:33.693Z,0.70
2023-01-06T03:09:37.650Z,0.70
2023-01-06T03:14:45.721Z,0.83
2023-01-06T03:19:48.603Z,0.87
2023-01-06T03:24:53.912Z,1.10
2023-01-06T03:29:58.965Z,1.00
2023-01-06T03:35:33.884Z,1.00
2023-01-06T03:40:44.109Z,0.90
2023-01-06T03:46:17.047Z,2.07
2023-01-06T03:51:43.354Z,0.90
2023-01-06T03:57:01.234Z,0.70
2023-01-06T04:02:05.640Z,1.07
2023-01-06T04:07:08.296Z,0.90
2023-01-06T04:12:33.021Z,0.80
2023-01-06T04:17:35.349Z,0.80
2023-01-06T04:22:37.669Z,0.60
2023-01-06T04:27:39.855Z,0.50
2023-01-06T04:32:42.192Z,0.60
2023-01-06T04:37:44.830Z,0.70
2023-01-06T04:43:05.012Z,0.60
2023-01-06T04:48:07.181Z,0.53
2023-01-06T04:53:11.666Z,0.70
2023-01-06T04:58:13.448Z,0.90
2023-01-06T05:03:15.244Z,0.70
2023-01-06T05:08:17.167Z,0.50
2023-01-06T05:13:19.064Z,0.60
2023-01-06T05:18:21.076Z,0.60
2023-01-06T05:23:23.133Z,0.77
2023-01-06T05:28:25.014Z,0.80
2023-01-06T05:33:27.007Z,0.57
2023-01-06T05:38:29.315Z,0.90
2023-01-06T05:43:33.920Z,0.80
2023-01-06T05:48:36.370Z,0.90
2023-01-06T05:53:43.324Z,0.80
2023-01-06T05:58:47.458Z,0.90
2023-01-06T06:03:50.629Z,0.67
2023-01-06T06:08:52.531Z,0.53
2023-01-06T06:13:56.035Z,0.87
2023-01-06T06:18:58.986Z,0.53
2023-01-06T06:24:00.948Z,0.43
2023-01-06T06:29:06.046Z,0.77
2023-01-06T06:34:12.313Z,0.73
2023-01-06T06:39:14.155Z,0.80
2023-01-06T06:44:15.951Z,0.60
2023-01-06T06:49:17.860Z,0.40
2023-01-06T06:54:19.707Z,0.50
2023-01-06T06:59:21.486Z,0.50
2023-01-06T07:04:23.455Z,0.70
2023-01-06T07:09:25.355Z,0.57
2023-01-06T07:14:27.311Z,0.60
2023-01-06T07:19:29.309Z,0.60
2023-01-06T07:24:31.083Z,0.50
2023-01-06T07:29:32.951Z,0.73
2023-01-06T07:34:34.720Z,0.70
2023-01-06T07:39:36.662Z,0.60
2023-01-06T07:44:38.464Z,0.90
2023-01-06T07:49:40.393Z,0.80
2023-01-06T07:54:42.386Z,0.90
2023-01-06T07:59:44.229Z,0.70
2023-01-06T08:04:46.156Z,0.90
2023-01-06T08:09:48.085Z,0.67
2023-01-06T08:14:49.893Z,0.70
2023-01-06T08:19:51.654Z,1.23
2023-01-06T08:24:53.512Z,1.30
2023-01-06T08:29:55.385Z,1.10
2023-01-06T08:34:57.400Z,0.93
2023-01-06T08:39:59.410Z,1.30
2023-01-06T08:45:01.376Z,1.47
2023-01-06T08:50:03.574Z,1.47
2023-01-06T08:55:05.719Z,1.20
2023-01-06T09:00:08.525Z,1.33
2023-01-06T09:05:10.593Z,1.20
2023-01-06T09:10:12.423Z,1.20
2023-01-06T09:15:14.623Z,1.40
2023-01-06T09:20:16.703Z,1.60
2023-01-06T09:25:21.053Z,0.97
2023-01-06T09:30:25.180Z,1.43
2023-01-06T09:35:27.144Z,1.10
2023-01-06T09:40:38.400Z,1.20
2023-01-06T09:45:45.746Z,1.20
2023-01-06T09:50:52.981Z,1.10
2023-01-06T09:56:00.485Z,1.20
2023-01-06T10:01:07.838Z,1.70
2023-01-06T10:06:28.515Z,1.60
2023-01-06T10:11:36.555Z,1.93
2023-01-06T10:16:50.680Z,1.73
2023-01-06T10:22:08.981Z,2.23
2023-01-06T10:27:20.889Z,1.50
2023-01-06T10:32:26.576Z,1.80
2023-01-06T10:37:40.960Z,1.60
2023-01-06T10:42:56.173Z,1.90
2023-01-06T10:47:59.473Z,1.50
2023-01-06T10:53:01.448Z,1.43
2023-01-06T10:58:12.676Z,2.00
2023-01-06T11:03:31.810Z,1.90
2023-01-06T11:08:36.154Z,2.17
2023-01-06T11:13:39.447Z,1.30
2023-01-06T11:18:41.563Z,1.10
2023-01-06T11:23:46.624Z,1.40
2023-01-06T11:28:53.033Z,1.57
2023-01-06T11:33:58.319Z,1.63
2023-01-06T11:39:13.505Z,1.00
2023-01-06T11:44:31.921Z,1.20
2023-01-06T11:49:55.949Z,1.10
2023-01-06T11:55:07.106Z,0.83
2023-01-06T12:00:37.186Z,1.47
2023-01-06T12:05:49.684Z,1.60
2023-01-06T12:10:57.166Z,1.80
2023-01-06T12:16:07.475Z,1.60
2023-01-06T12:21:19.059Z,1.10
2023-01-06T12:26:24.008Z,1.40
2023-01-06T12:31:53.782Z,1.10
2023-01-06T12:37:04.233Z,1.40
2023-01-06T12:42:09.247Z,1.50
2023-01-06T12:47:37.041Z,1.77
2023-01-06T12:52:45.845Z,1.80
2023-01-06T12:58:53.501Z,2.10
2023-01-06T13:03:58.300Z,2.40
2023-01-06T13:09:30.888Z,1.90
2023-01-06T13:14:44.869Z,1.80
2023-01-06T13:20:02.511Z,2.17
2023-01-06T13:25:26.218Z,1.77
2023-01-06T13:31:00.408Z,2.10
2023-01-06T13:36:27.987Z,1.63
2023-01-06T13:41:34.918Z,1.90
2023-01-06T13:46:36.883Z,1.40
2023-01-06T13:51:42.022Z,1.80
2023-01-06T13:56:43.989Z,2.00
2023-01-06T14:01:46.521Z,2.30
2023-01-06T14:06:49.083Z,4.03
2023-01-06T14:11:51.370Z,1.67
2023-01-06T14:16:54.713Z,1.80
2023-01-06T14:22:16.240Z,2.10
2023-01-06T14:28:01.070Z,1.60
2023-01-06T14:33:35.184Z,1.40
2023-01-06T14:38:48.003Z,1.27
2023-01-06T14:44:06.697Z,1.00
2023-01-06T14:49:26.457Z,1.30
2023-01-06T14:54:37.445Z,1.17
2023-01-06T14:59:39.204Z,1.40
2023-01-06T15:04:43.274Z,1.30
2023-01-06T15:09:47.382Z,1.60
2023-01-06T15:14:49.405Z,1.50
2023-01-06T15:19:52.695Z,1.73
2023-01-06T15:24:54.941Z,1.50
2023-01-06T15:29:57.952Z,1.57
2023-01-06T15:35:00.732Z,1.70
2023-01-06T15:40:04.774Z,1.87
2023-01-06T15:45:07.917Z,1.70
2023-01-06T15:50:18.527Z,1.50
2023-01-06T15:55:23.076Z,1.50
2023-01-06T16:00:28.302Z,1.97
2023-01-06T16:05:39.811Z,2.70
2023-01-06T16:10:41.819Z,1.90
2023-01-06T16:16:07.252Z,2.23
2023-01-06T16:21:34.445Z,1.80
2023-01-06T16:26:46.490Z,1.53
2023-01-06T16:31:48.418Z,2.30
2023-01-06T16:36:54.955Z,4.00
2023-01-06T16:41:59.962Z,2.20
2023-01-06T16:47:02.623Z,2.07
2023-01-06T16:52:04.439Z,2.53
2023-01-06T16:57:09.821Z,2.37
2023-01-06T17:02:15.958Z,1.70
2023-01-06T17:07:18.064Z,2.03
2023-01-06T17:12:38.323Z,1.83
2023-01-06T17:17:40.791Z,2.43
2023-01-06T17:22:43.560Z,2.63
2023-01-06T17:27:45.948Z,2.47
2023-01-06T17:32:48.155Z,2.57
2023-01-06T17:37:50.104Z,2.57
2023-01-06T17:43:01.561Z,2.70
2023-01-06T17:48:09.334Z,3.10
2023-01-06T17:53:41.228Z,2.90
2023-01-06T17:58:45.090Z,3.30
2023-01-06T18:03:47.609Z,3.17
2023-01-06T18:09:12.695Z,3.40
2023-01-06T18:14:25.975Z,3.20
2023-01-06T18:19:37.414Z,3.90
2023-01-06T18:24:40.809Z,3.77
2023-01-06T18:29:44.200Z,6.00
2023-01-06T18:34:47.194Z,4.10
2023-01-06T18:39:51.009Z,4.37
2023-01-06T18:45:01.613Z,4.30
2023-01-06T18:50:38.453Z,4.10
2023-01-06T18:55:51.081Z,4.23
2023-01-06T19:00:58.611Z,4.40
2023-01-06T19:06:18.975Z,4.30
2023-01-06T19:11:26.449Z,4.23
2023-01-06T19:16:43.253Z,2.87
2023-01-06T19:21:45.205Z,3.30
2023-01-06T19:26:47.185Z,2.57
2023-01-06T19:31:54.792Z,3.30
2023-01-06T19:36:58.118Z,3.20
2023-01-06T19:42:22.160Z,3.20
2023-01-06T19:47:27.656Z,3.63
2023-01-06T19:52:36.521Z,3.40
2023-01-06T19:57:41.356Z,3.23
2023-01-06T20:02:45.756Z,3.73
2023-01-06T20:07:47.578Z,3.83
2023-01-06T20:12:49.882Z,3.53
2023-01-06T20:17:51.666Z,3.80
2023-01-06T20:22:53.553Z,3.63
2023-01-06T20:27:55.355Z,4.53
2023-01-06T20:32:57.259Z,3.80
2023-01-06T20:37:59.246Z,3.83
2023-01-06T20:43:01.330Z,3.53
2023-01-06T20:48:03.437Z,4.53
2023-01-06T20:53:05.210Z,4.00
2023-01-06T20:58:07.136Z,3.67
2023-01-06T21:03:08.999Z,4.40
2023-01-06T21:08:10.800Z,4.47
2023-01-06T21:13:12.558Z,4.47
2023-01-06T21:18:14.304Z,4.60
2023-01-06T21:23:16.451Z,4.10
2023-01-06T21:28:18.385Z,4.20
2023-01-06T21:33:21.675Z,3.80
2023-01-06T21:38:24.007Z,4.60
2023-01-06T21:43:25.792Z,3.87
2023-01-06T21:48:27.702Z,3.93
2023-01-06T21:53:31.958Z,4.07
2023-01-06T21:58:34.310Z,4.00
2023-01-06T22:03:36.410Z,4.10
2023-01-06T22:08:39.013Z,4.40
2023-01-06T22:13:41.167Z,3.83
2023-01-06T22:18:43.050Z,3.43
2023-01-06T22:23:44.998Z,3.50
2023-01-06T22:28:46.910Z,2.70
2023-01-06T22:33:48.938Z,3.50
2023-01-06T22:38:52.013Z,3.53
2023-01-06T22:43:53.833Z,3.60
2023-01-06T22:48:55.768Z,3.00
2023-01-06T22:53:58.092Z,3.73
2023-01-06T22:58:59.888Z,3.67
2023-01-06T23:04:03.241Z,3.53
2023-01-06T23:09:05.004Z,3.00
2023-01-06T23:14:08.461Z,3.20
2023-01-06T23:19:12.684Z,3.30
2023-01-06T23:24:14.865Z,3.37
2023-01-06T23:29:16.885Z,3.30
2023-01-06T23:34:19.313Z,3.37
2023-01-06T23:39:21.178Z,3.27
2023-01-06T23:44:23.036Z,3.23
2023-01-06T23:49:24.867Z,3.20
2023-01-06T23:54:26.753Z,3.03
2023-01-06T23:59:28.689Z,3.17
